sensor_id;sensor_type;location;lat;lon;timestamp;pressure;altitude;pressure_sealevel;temperature;humidity
78671;BME280;68277;52.724;6.516;2023-09-07T00:00:14;102060.69;;;19.28;72.77
78671;BME280;68277;52.724;6.516;2023-09-07T00:02:40;102043.19;;;19.18;72.47
78671;BME280;68277;52.724;6.516;2023-09-07T00:05:06;102080.94;;;19.37;72.52
78671;BME280;68277;52.724;6.516;2023-09-07T00:07:33;102046.16;;;19.10;72.69
78671;BME280;68277;52.724;6.516;2023-09-07T00:09:59;102038.97;;;19.11;72.54
78671;BME280;68277;52.724;6.516;2023-09-07T00:12:25;102074.91;;;19.30;73.00
78671;BME280;68277;52.724;6.516;2023-09-07T00:14:52;102073.22;;;19.28;72.70
78671;BME280;68277;52.724;6.516;2023-09-07T00:17:17;102050.59;;;19.11;72.89
78671;BME280;68277;52.724;6.516;2023-09-07T00:19:42;102053.09;;;19.16;72.55
78671;BME280;68277;52.724;6.516;2023-09-07T00:22:08;102052.28;;;19.14;72.96
78671;BME280;68277;52.724;6.516;2023-09-07T00:24:34;102067.25;;;19.20;72.91
78671;BME280;68277;52.724;6.516;2023-09-07T00:27:00;102045.59;;;19.02;73.26
78671;BME280;68277;52.724;6.516;2023-09-07T00:29:25;102051.69;;;19.06;73.29
78671;BME280;68277;52.724;6.516;2023-09-07T00:31:51;102023.78;;;18.88;73.84
78671;BME280;68277;52.724;6.516;2023-09-07T00:34:16;102070.28;;;19.12;73.08
78671;BME280;68277;52.724;6.516;2023-09-07T00:36:42;102052.06;;;18.97;73.85
78671;BME280;68277;52.724;6.516;2023-09-07T00:39:07;102060.03;;;18.98;73.95
78671;BME280;68277;52.724;6.516;2023-09-07T00:41:34;102049.63;;;18.91;73.49
78671;BME280;68277;52.724;6.516;2023-09-07T00:43:59;102050.63;;;18.87;73.89
78671;BME280;68277;52.724;6.516;2023-09-07T00:46:25;102079.59;;;19.02;73.78
78671;BME280;68277;52.724;6.516;2023-09-07T00:48:51;102074.13;;;19.05;73.08
78671;BME280;68277;52.724;6.516;2023-09-07T00:51:16;102047.78;;;18.91;73.52
78671;BME280;68277;52.724;6.516;2023-09-07T00:53:42;102059.19;;;18.98;73.27
78671;BME280;68277;52.724;6.516;2023-09-07T00:56:09;102016.19;;;18.76;73.37
78671;BME280;68277;52.724;6.516;2023-09-07T00:58:35;102057.34;;;18.98;73.98
78671;BME280;68277;52.724;6.516;2023-09-07T01:01:01;102040.78;;;18.87;73.24
78671;BME280;68277;52.724;6.516;2023-09-07T01:03:27;102057.25;;;19.01;73.58
78671;BME280;68277;52.724;6.516;2023-09-07T01:06:01;102037.13;;;18.90;73.64
78671;BME280;68277;52.724;6.516;2023-09-07T01:08:35;101996.72;;;18.71;73.62
78671;BME280;68277;52.724;6.516;2023-09-07T01:11:17;102028.34;;;18.86;74.16
78671;BME280;68277;52.724;6.516;2023-09-07T01:13:45;102054.81;;;18.95;73.03
78671;BME280;68277;52.724;6.516;2023-09-07T01:16:12;102026.81;;;18.79;73.21
78671;BME280;68277;52.724;6.516;2023-09-07T01:18:44;102019.63;;;18.80;73.30
78671;BME280;68277;52.724;6.516;2023-09-07T01:21:11;102048.50;;;18.96;72.88
78671;BME280;68277;52.724;6.516;2023-09-07T01:23:40;102025.97;;;18.77;73.10
78671;BME280;68277;52.724;6.516;2023-09-07T01:26:07;102015.59;;;18.68;73.36
78671;BME280;68277;52.724;6.516;2023-09-07T01:28:34;102013.78;;;18.69;73.37
78671;BME280;68277;52.724;6.516;2023-09-07T01:31:00;102008.69;;;18.61;73.17
78671;BME280;68277;52.724;6.516;2023-09-07T01:33:27;102043.00;;;18.76;73.91
78671;BME280;68277;52.724;6.516;2023-09-07T01:35:52;102016.81;;;18.60;74.13
78671;BME280;68277;52.724;6.516;2023-09-07T01:38:18;102031.81;;;18.65;74.11
78671;BME280;68277;52.724;6.516;2023-09-07T01:40:44;102032.97;;;18.58;73.89
78671;BME280;68277;52.724;6.516;2023-09-07T01:43:10;102030.38;;;18.55;74.18
78671;BME280;68277;52.724;6.516;2023-09-07T01:45:36;102044.69;;;18.56;74.26
78671;BME280;68277;52.724;6.516;2023-09-07T01:48:01;102033.19;;;18.52;73.95
78671;BME280;68277;52.724;6.516;2023-09-07T01:50:29;102041.16;;;18.54;74.63
78671;BME280;68277;52.724;6.516;2023-09-07T01:52:55;102050.22;;;18.51;74.47
78671;BME280;68277;52.724;6.516;2023-09-07T01:55:20;102040.47;;;18.49;74.18
78671;BME280;68277;52.724;6.516;2023-09-07T01:57:46;102034.41;;;18.42;74.46
78671;BME280;68277;52.724;6.516;2023-09-07T02:00:12;102026.66;;;18.34;74.30
78671;BME280;68277;52.724;6.516;2023-09-07T02:02:41;102004.75;;;18.22;74.39
78671;BME280;68277;52.724;6.516;2023-09-07T02:05:06;102039.06;;;18.37;75.04
78671;BME280;68277;52.724;6.516;2023-09-07T02:07:33;102042.66;;;18.36;74.82
78671;BME280;68277;52.724;6.516;2023-09-07T02:09:58;102030.31;;;18.32;74.52
78671;BME280;68277;52.724;6.516;2023-09-07T02:12:24;102024.28;;;18.25;74.91
78671;BME280;68277;52.724;6.516;2023-09-07T02:14:49;102030.69;;;18.21;75.08
78671;BME280;68277;52.724;6.516;2023-09-07T02:17:15;102038.72;;;18.21;74.75
78671;BME280;68277;52.724;6.516;2023-09-07T02:19:44;102051.94;;;18.26;74.78
78671;BME280;68277;52.724;6.516;2023-09-07T02:22:10;102025.09;;;18.03;74.88
78671;BME280;68277;52.724;6.516;2023-09-07T02:24:36;102025.19;;;18.00;75.33
78671;BME280;68277;52.724;6.516;2023-09-07T02:27:01;102034.97;;;18.01;75.50
78671;BME280;68277;52.724;6.516;2023-09-07T02:29:27;102051.56;;;18.12;75.38
78671;BME280;68277;52.724;6.516;2023-09-07T02:31:52;102038.69;;;17.97;75.15
78671;BME280;68277;52.724;6.516;2023-09-07T02:34:19;102041.16;;;18.03;75.40
78671;BME280;68277;52.724;6.516;2023-09-07T02:36:45;102021.13;;;17.88;75.20
78671;BME280;68277;52.724;6.516;2023-09-07T02:39:11;102027.44;;;17.86;75.56
78671;BME280;68277;52.724;6.516;2023-09-07T02:41:37;102029.22;;;17.87;75.98
78671;BME280;68277;52.724;6.516;2023-09-07T02:44:04;102052.19;;;17.94;79.48
78671;BME280;68277;52.724;6.516;2023-09-07T02:46:29;102013.78;;;17.68;75.60
78671;BME280;68277;52.724;6.516;2023-09-07T02:48:57;102049.69;;;17.88;75.55
78671;BME280;68277;52.724;6.516;2023-09-07T02:51:25;102055.19;;;17.85;76.32
78671;BME280;68277;52.724;6.516;2023-09-07T02:53:51;102014.03;;;17.59;75.70
78671;BME280;68277;52.724;6.516;2023-09-07T02:56:17;102035.22;;;17.67;76.57
78671;BME280;68277;52.724;6.516;2023-09-07T02:58:43;102022.06;;;17.59;76.89
78671;BME280;68277;52.724;6.516;2023-09-07T03:01:10;102049.53;;;17.66;76.91
78671;BME280;68277;52.724;6.516;2023-09-07T03:03:37;102030.50;;;17.47;76.53
78671;BME280;68277;52.724;6.516;2023-09-07T03:06:12;102052.25;;;17.64;79.28
78671;BME280;68277;52.724;6.516;2023-09-07T03:08:40;102027.63;;;17.53;76.46
78671;BME280;68277;52.724;6.516;2023-09-07T03:11:11;102046.88;;;17.66;76.05
78671;BME280;68277;52.724;6.516;2023-09-07T03:13:37;102053.13;;;17.65;76.44
78671;BME280;68277;52.724;6.516;2023-09-07T03:16:04;102040.94;;;17.56;76.44
78671;BME280;68277;52.724;6.516;2023-09-07T03:18:30;102043.75;;;17.52;76.15
78671;BME280;68277;52.724;6.516;2023-09-07T03:21:00;102027.25;;;17.36;76.40
78671;BME280;68277;52.724;6.516;2023-09-07T03:23:28;102040.41;;;17.44;76.77
78671;BME280;68277;52.724;6.516;2023-09-07T03:25:53;102052.00;;;17.44;76.54
78671;BME280;68277;52.724;6.516;2023-09-07T03:28:19;102024.88;;;17.27;76.34
78671;BME280;68277;52.724;6.516;2023-09-07T03:30:45;102042.56;;;17.33;76.97
78671;BME280;68277;52.724;6.516;2023-09-07T03:33:11;102021.59;;;17.18;77.02
78671;BME280;68277;52.724;6.516;2023-09-07T03:35:36;102059.44;;;17.35;77.25
78671;BME280;68277;52.724;6.516;2023-09-07T03:38:03;102020.78;;;17.16;77.51
78671;BME280;68277;52.724;6.516;2023-09-07T03:40:29;102055.25;;;17.26;77.49
78671;BME280;68277;52.724;6.516;2023-09-07T03:42:55;102023.66;;;17.09;77.41
78671;BME280;68277;52.724;6.516;2023-09-07T03:45:20;102050.91;;;17.22;77.57
78671;BME280;68277;52.724;6.516;2023-09-07T03:47:46;102032.66;;;17.07;77.56
78671;BME280;68277;52.724;6.516;2023-09-07T03:50:14;102031.81;;;17.05;77.50
78671;BME280;68277;52.724;6.516;2023-09-07T03:52:40;102031.81;;;17.05;77.34
78671;BME280;68277;52.724;6.516;2023-09-07T03:55:07;102030.16;;;17.01;77.72
78671;BME280;68277;52.724;6.516;2023-09-07T03:57:33;102040.91;;;16.99;78.04
78671;BME280;68277;52.724;6.516;2023-09-07T03:59:59;102029.50;;;16.93;78.26
78671;BME280;68277;52.724;6.516;2023-09-07T04:02:25;102057.69;;;17.04;78.27
78671;BME280;68277;52.724;6.516;2023-09-07T04:04:52;102017.19;;;16.87;79.01
78671;BME280;68277;52.724;6.516;2023-09-07T04:07:18;102034.03;;;16.91;78.69
78671;BME280;68277;52.724;6.516;2023-09-07T04:09:46;102024.38;;;16.85;78.24
78671;BME280;68277;52.724;6.516;2023-09-07T04:12:12;102048.84;;;17.02;78.69
78671;BME280;68277;52.724;6.516;2023-09-07T04:14:40;102049.69;;;17.03;78.19
78671;BME280;68277;52.724;6.516;2023-09-07T04:17:07;102011.25;;;16.78;79.06
78671;BME280;68277;52.724;6.516;2023-09-07T04:19:32;102037.53;;;16.93;78.71
78671;BME280;68277;52.724;6.516;2023-09-07T04:21:58;102048.91;;;16.99;78.98
78671;BME280;68277;52.724;6.516;2023-09-07T04:24:24;102041.03;;;16.95;78.69
78671;BME280;68277;52.724;6.516;2023-09-07T04:26:50;102032.34;;;16.87;78.62
78671;BME280;68277;52.724;6.516;2023-09-07T04:29:16;102027.88;;;16.87;78.47
78671;BME280;68277;52.724;6.516;2023-09-07T04:31:42;102046.31;;;16.98;78.61
78671;BME280;68277;52.724;6.516;2023-09-07T04:34:07;102036.66;;;16.92;78.14
78671;BME280;68277;52.724;6.516;2023-09-07T04:36:34;102047.97;;;17.00;78.02
78671;BME280;68277;52.724;6.516;2023-09-07T04:38:59;102042.78;;;16.96;78.58
78671;BME280;68277;52.724;6.516;2023-09-07T04:41:25;102053.38;;;16.99;78.53
78671;BME280;68277;52.724;6.516;2023-09-07T04:43:52;102014.84;;;16.77;78.17
78671;BME280;68277;52.724;6.516;2023-09-07T04:46:23;102011.44;;;16.72;78.45
78671;BME280;68277;52.724;6.516;2023-09-07T04:48:49;102020.34;;;16.71;80.20
78671;BME280;68277;52.724;6.516;2023-09-07T04:51:15;102052.84;;;16.88;79.65
78671;BME280;68277;52.724;6.516;2023-09-07T04:53:42;102028.38;;;16.71;79.39
78671;BME280;68277;52.724;6.516;2023-09-07T04:56:08;102049.50;;;16.80;80.04
78671;BME280;68277;52.724;6.516;2023-09-07T04:58:34;102056.53;;;16.84;79.68
78671;BME280;68277;52.724;6.516;2023-09-07T05:01:04;102059.16;;;16.85;83.89
78671;BME280;68277;52.724;6.516;2023-09-07T05:03:31;102024.06;;;16.65;79.76
78671;BME280;68277;52.724;6.516;2023-09-07T05:05:59;102030.13;;;16.72;79.12
78671;BME280;68277;52.724;6.516;2023-09-07T05:08:25;102039.69;;;16.80;78.75
78671;BME280;68277;52.724;6.516;2023-09-07T05:11:01;102040.72;;;16.75;80.48
78671;BME280;68277;52.724;6.516;2023-09-07T05:13:28;102061.75;;;16.88;79.85
78671;BME280;68277;52.724;6.516;2023-09-07T05:15:55;102049.50;;;16.80;79.01
78671;BME280;68277;52.724;6.516;2023-09-07T05:18:22;102046.13;;;16.73;79.87
78671;BME280;68277;52.724;6.516;2023-09-07T05:20:48;102076.03;;;16.87;80.05
78671;BME280;68277;52.724;6.516;2023-09-07T05:23:15;102055.84;;;16.76;78.94
78671;BME280;68277;52.724;6.516;2023-09-07T05:25:53;102059.28;;;16.81;79.25
78671;BME280;68277;52.724;6.516;2023-09-07T05:28:22;102063.56;;;16.86;78.94
78671;BME280;68277;52.724;6.516;2023-09-07T05:30:48;102061.63;;;16.91;80.05
78671;BME280;68277;52.724;6.516;2023-09-07T05:33:15;102078.25;;;17.02;78.92
78671;BME280;68277;52.724;6.516;2023-09-07T05:35:42;102074.78;;;16.99;79.11
78671;BME280;68277;52.724;6.516;2023-09-07T05:38:08;102058.94;;;16.91;79.22
78671;BME280;68277;52.724;6.516;2023-09-07T05:40:41;102070.19;;;17.04;78.62
78671;BME280;68277;52.724;6.516;2023-09-07T05:43:11;102067.28;;;17.12;78.43
78671;BME280;68277;52.724;6.516;2023-09-07T05:45:40;102072.44;;;17.18;78.92
78671;BME280;68277;52.724;6.516;2023-09-07T05:48:07;102060.16;;;17.12;79.38
78671;BME280;68277;52.724;6.516;2023-09-07T05:50:34;102081.03;;;17.29;82.72
78671;BME280;68277;52.724;6.516;2023-09-07T05:53:00;102056.38;;;17.18;78.74
78671;BME280;68277;52.724;6.516;2023-09-07T05:55:26;102073.78;;;17.32;78.38
78671;BME280;68277;52.724;6.516;2023-09-07T05:57:57;102069.34;;;17.31;79.14
78671;BME280;68277;52.724;6.516;2023-09-07T06:00:26;102042.09;;;17.19;79.21
78671;BME280;68277;52.724;6.516;2023-09-07T06:02:52;102073.56;;;17.40;78.33
78671;BME280;68277;52.724;6.516;2023-09-07T06:05:18;102061.88;;;17.42;78.28
78671;BME280;68277;52.724;6.516;2023-09-07T06:07:44;102074.94;;;17.53;78.36
78671;BME280;68277;52.724;6.516;2023-09-07T06:10:12;102056.28;;;17.50;77.79
78671;BME280;68277;52.724;6.516;2023-09-07T06:12:37;102064.78;;;17.90;77.95
78671;BME280;68277;52.724;6.516;2023-09-07T06:15:03;102089.88;;;20.45;72.55
78671;BME280;68277;52.724;6.516;2023-09-07T06:17:29;102053.78;;;22.36;64.79
78671;BME280;68277;52.724;6.516;2023-09-07T06:19:56;102057.34;;;23.52;61.89
78671;BME280;68277;52.724;6.516;2023-09-07T06:22:22;102047.72;;;24.53;58.83
78671;BME280;68277;52.724;6.516;2023-09-07T06:24:49;102074.56;;;24.85;59.09
78671;BME280;68277;52.724;6.516;2023-09-07T06:27:15;102068.78;;;25.05;58.55
78671;BME280;68277;52.724;6.516;2023-09-07T06:29:40;102077.09;;;24.88;59.53
78671;BME280;68277;52.724;6.516;2023-09-07T06:32:06;102098.59;;;24.76;61.20
78671;BME280;68277;52.724;6.516;2023-09-07T06:34:32;102088.13;;;24.56;62.31
78671;BME280;68277;52.724;6.516;2023-09-07T06:36:57;102081.28;;;24.20;64.18
78671;BME280;68277;52.724;6.516;2023-09-07T06:39:23;102084.97;;;23.72;67.22
78671;BME280;68277;52.724;6.516;2023-09-07T06:41:49;102085.59;;;23.62;69.02
78671;BME280;68277;52.724;6.516;2023-09-07T06:44:17;102074.00;;;24.51;66.67
78671;BME280;68277;52.724;6.516;2023-09-07T06:46:43;102099.81;;;26.11;53.25
78671;BME280;68277;52.724;6.516;2023-09-07T06:49:09;102078.31;;;27.48;56.24
78671;BME280;68277;52.724;6.516;2023-09-07T06:51:35;102072.38;;;28.38;53.74
78671;BME280;68277;52.724;6.516;2023-09-07T06:54:00;102070.44;;;28.51;53.02
78671;BME280;68277;52.724;6.516;2023-09-07T06:56:27;102078.22;;;28.44;52.69
78671;BME280;68277;52.724;6.516;2023-09-07T06:58:52;102075.19;;;28.02;53.19
78671;BME280;68277;52.724;6.516;2023-09-07T07:01:19;102057.38;;;27.61;52.72
78671;BME280;68277;52.724;6.516;2023-09-07T07:03:45;102060.34;;;27.33;49.47
78671;BME280;68277;52.724;6.516;2023-09-07T07:06:12;102081.69;;;27.27;53.72
78671;BME280;68277;52.724;6.516;2023-09-07T07:08:38;102100.16;;;27.59;52.62
78671;BME280;68277;52.724;6.516;2023-09-07T07:11:04;102072.16;;;26.96;53.38
78671;BME280;68277;52.724;6.516;2023-09-07T07:13:29;102098.81;;;26.64;53.58
78671;BME280;68277;52.724;6.516;2023-09-07T07:15:55;102075.06;;;26.16;54.06
78671;BME280;68277;52.724;6.516;2023-09-07T07:18:21;102070.66;;;25.74;55.25
78671;BME280;68277;52.724;6.516;2023-09-07T07:20:48;102087.47;;;24.96;58.92
78671;BME280;68277;52.724;6.516;2023-09-07T07:23:16;102054.91;;;24.24;61.52
78671;BME280;68277;52.724;6.516;2023-09-07T07:25:42;102100.75;;;24.41;63.27
78671;BME280;68277;52.724;6.516;2023-09-07T07:28:07;102082.13;;;24.51;62.48
78671;BME280;68277;52.724;6.516;2023-09-07T07:30:39;102112.50;;;25.56;59.93
78671;BME280;68277;52.724;6.516;2023-09-07T07:33:09;102065.09;;;27.06;54.93
78671;BME280;68277;52.724;6.516;2023-09-07T07:35:37;102094.84;;;28.29;50.53
78671;BME280;68277;52.724;6.516;2023-09-07T07:38:04;102085.66;;;27.59;52.44
78671;BME280;68277;52.724;6.516;2023-09-07T07:40:32;102090.91;;;26.74;54.75
78671;BME280;68277;52.724;6.516;2023-09-07T07:42:58;102104.53;;;26.08;56.04
78671;BME280;68277;52.724;6.516;2023-09-07T07:45:23;102074.19;;;25.48;58.53
78671;BME280;68277;52.724;6.516;2023-09-07T07:47:51;102079.97;;;25.42;59.36
78671;BME280;68277;52.724;6.516;2023-09-07T07:50:17;102098.50;;;26.17;58.07
78671;BME280;68277;52.724;6.516;2023-09-07T07:52:44;102079.41;;;26.70;54.96
78671;BME280;68277;52.724;6.516;2023-09-07T07:55:10;102099.84;;;26.76;56.88
78671;BME280;68277;52.724;6.516;2023-09-07T07:57:38;102066.84;;;26.30;57.94
78671;BME280;68277;52.724;6.516;2023-09-07T08:00:05;102109.59;;;26.26;59.34
78671;BME280;68277;52.724;6.516;2023-09-07T08:02:39;102069.19;;;26.61;57.85
78671;BME280;68277;52.724;6.516;2023-09-07T08:05:05;102107.44;;;28.42;47.45
78671;BME280;68277;52.724;6.516;2023-09-07T08:07:31;102066.84;;;29.41;49.58
78671;BME280;68277;52.724;6.516;2023-09-07T08:09:56;102113.88;;;30.41;46.17
78671;BME280;68277;52.724;6.516;2023-09-07T08:12:22;102090.41;;;29.20;48.04
78671;BME280;68277;52.724;6.516;2023-09-07T08:14:48;102095.13;;;27.66;52.19
78671;BME280;68277;52.724;6.516;2023-09-07T08:17:13;102101.66;;;26.63;55.11
78671;BME280;68277;52.724;6.516;2023-09-07T08:19:40;102097.22;;;26.22;57.21
78671;BME280;68277;52.724;6.516;2023-09-07T08:22:06;102089.13;;;26.35;57.94
78671;BME280;68277;52.724;6.516;2023-09-07T08:24:32;102089.94;;;27.50;55.75
78671;BME280;68277;52.724;6.516;2023-09-07T08:26:58;102079.81;;;27.89;54.15
78671;BME280;68277;52.724;6.516;2023-09-07T08:29:28;102070.06;;;28.10;53.81
78671;BME280;68277;52.724;6.516;2023-09-07T08:31:57;102084.50;;;28.69;53.50
78671;BME280;68277;52.724;6.516;2023-09-07T08:34:23;102067.66;;;28.05;54.12
78671;BME280;68277;52.724;6.516;2023-09-07T08:36:49;102087.53;;;27.82;55.81
78671;BME280;68277;52.724;6.516;2023-09-07T08:39:16;102078.16;;;28.33;54.45
78671;BME280;68277;52.724;6.516;2023-09-07T08:41:43;102096.19;;;28.47;54.88
78671;BME280;68277;52.724;6.516;2023-09-07T08:44:16;102091.69;;;28.70;50.60
78671;BME280;68277;52.724;6.516;2023-09-07T08:46:43;102089.88;;;30.24;49.45
78671;BME280;68277;52.724;6.516;2023-09-07T08:49:09;102094.41;;;31.17;46.69
78671;BME280;68277;52.724;6.516;2023-09-07T08:51:37;102067.25;;;30.33;46.91
78671;BME280;68277;52.724;6.516;2023-09-07T08:54:03;102088.81;;;29.39;48.93
78671;BME280;68277;52.724;6.516;2023-09-07T08:56:29;102076.34;;;29.02;48.12
78671;BME280;68277;52.724;6.516;2023-09-07T08:58:55;102082.44;;;29.83;46.31
78671;BME280;68277;52.724;6.516;2023-09-07T09:01:20;102073.94;;;29.97;46.17
78671;BME280;68277;52.724;6.516;2023-09-07T09:03:50;102082.31;;;30.69;42.43
78671;BME280;68277;52.724;6.516;2023-09-07T09:06:18;102059.91;;;30.95;43.88
78671;BME280;68277;52.724;6.516;2023-09-07T09:08:46;102083.28;;;31.39;43.54
78671;BME280;68277;52.724;6.516;2023-09-07T09:11:15;102059.66;;;30.57;45.75
78671;BME280;68277;52.724;6.516;2023-09-07T09:13:41;102081.38;;;31.00;45.88
78671;BME280;68277;52.724;6.516;2023-09-07T09:16:07;102077.13;;;31.17;44.48
78671;BME280;68277;52.724;6.516;2023-09-07T09:18:33;102065.06;;;30.89;44.51
78671;BME280;68277;52.724;6.516;2023-09-07T09:20:58;102047.19;;;29.69;47.49
78671;BME280;68277;52.724;6.516;2023-09-07T09:23:29;102049.34;;;29.10;48.87
78671;BME280;68277;52.724;6.516;2023-09-07T09:25:55;102064.50;;;28.57;50.33
78671;BME280;68277;52.724;6.516;2023-09-07T09:28:21;102061.56;;;28.25;50.68
78671;BME280;68277;52.724;6.516;2023-09-07T09:30:51;102063.06;;;28.29;49.90
78671;BME280;68277;52.724;6.516;2023-09-07T09:33:19;102063.31;;;28.72;49.20
78671;BME280;68277;52.724;6.516;2023-09-07T09:35:45;102073.66;;;29.57;46.10
78671;BME280;68277;52.724;6.516;2023-09-07T09:38:13;102052.59;;;29.48;47.75
78671;BME280;68277;52.724;6.516;2023-09-07T09:40:38;102029.81;;;29.27;48.65
78671;BME280;68277;52.724;6.516;2023-09-07T09:43:05;102073.25;;;29.62;48.33
78671;BME280;68277;52.724;6.516;2023-09-07T09:45:31;102065.41;;;29.91;46.32
78671;BME280;68277;52.724;6.516;2023-09-07T09:47:58;102040.00;;;30.63;46.22
78671;BME280;68277;52.724;6.516;2023-09-07T09:50:25;102057.53;;;31.02;45.43
78671;BME280;68277;52.724;6.516;2023-09-07T09:52:52;102067.84;;;30.98;40.93
78671;BME280;68277;52.724;6.516;2023-09-07T09:55:18;102033.84;;;30.71;43.61
78671;BME280;68277;52.724;6.516;2023-09-07T09:57:44;102056.84;;;30.68;42.52
78671;BME280;68277;52.724;6.516;2023-09-07T10:00:10;102043.38;;;30.97;44.45
78671;BME280;68277;52.724;6.516;2023-09-07T10:03:14;102044.38;;;31.36;41.14
78671;BME280;68277;52.724;6.516;2023-09-07T10:05:44;102036.63;;;31.01;44.95
78671;BME280;68277;52.724;6.516;2023-09-07T10:08:12;102024.16;;;30.57;45.91
78671;BME280;68277;52.724;6.516;2023-09-07T10:10:41;102003.03;;;30.27;48.15
78671;BME280;68277;52.724;6.516;2023-09-07T10:13:08;102033.41;;;30.45;48.08
78671;BME280;68277;52.724;6.516;2023-09-07T10:15:34;102038.72;;;30.67;45.47
78671;BME280;68277;52.724;6.516;2023-09-07T10:18:10;102009.66;;;30.45;44.70
78671;BME280;68277;52.724;6.516;2023-09-07T10:20:58;102034.06;;;30.58;45.41
78671;BME280;68277;52.724;6.516;2023-09-07T10:26:00;102027.16;;;30.22;49.17
78671;BME280;68277;52.724;6.516;2023-09-07T10:28:25;102014.28;;;29.93;49.31
78671;BME280;68277;52.724;6.516;2023-09-07T10:30:58;102041.09;;;29.88;46.45
78671;BME280;68277;52.724;6.516;2023-09-07T10:33:23;102021.50;;;29.83;49.72
78671;BME280;68277;52.724;6.516;2023-09-07T10:35:49;102026.25;;;30.12;49.56
78671;BME280;68277;52.724;6.516;2023-09-07T10:38:14;102031.97;;;30.30;46.20
78671;BME280;68277;52.724;6.516;2023-09-07T10:40:42;102002.72;;;30.21;48.64
78671;BME280;68277;52.724;6.516;2023-09-07T10:43:09;101978.94;;;30.12;48.10
78671;BME280;68277;52.724;6.516;2023-09-07T10:45:34;102030.09;;;30.30;48.14
78671;BME280;68277;52.724;6.516;2023-09-07T10:48:00;102022.06;;;30.29;47.05
78671;BME280;68277;52.724;6.516;2023-09-07T10:50:25;101998.38;;;30.18;48.23
78671;BME280;68277;52.724;6.516;2023-09-07T10:52:51;102022.16;;;30.27;45.21
78671;BME280;68277;52.724;6.516;2023-09-07T10:55:16;101981.06;;;30.08;48.15
78671;BME280;68277;52.724;6.516;2023-09-07T10:57:45;102021.75;;;30.32;45.88
78671;BME280;68277;52.724;6.516;2023-09-07T11:00:12;101999.84;;;30.22;48.11
78671;BME280;68277;52.724;6.516;2023-09-07T11:02:40;102010.25;;;30.28;47.45
78671;BME280;68277;52.724;6.516;2023-09-07T11:05:12;101981.13;;;29.97;47.19
78671;BME280;68277;52.724;6.516;2023-09-07T11:07:37;102008.34;;;30.08;45.52
78671;BME280;68277;52.724;6.516;2023-09-07T11:10:08;101971.06;;;29.98;46.21
78671;BME280;68277;52.724;6.516;2023-09-07T11:12:38;101987.38;;;30.09;46.68
78671;BME280;68277;52.724;6.516;2023-09-07T11:15:10;101985.13;;;30.14;45.98
78671;BME280;68277;52.724;6.516;2023-09-07T11:17:39;101967.41;;;30.08;45.99
78671;BME280;68277;52.724;6.516;2023-09-07T11:20:08;101986.66;;;30.07;44.78
78671;BME280;68277;52.724;6.516;2023-09-07T11:22:35;101986.13;;;30.13;45.25
78671;BME280;68277;52.724;6.516;2023-09-07T11:25:05;102000.00;;;30.21;44.94
78671;BME280;68277;52.724;6.516;2023-09-07T11:27:31;101984.16;;;30.15;45.02
78671;BME280;68277;52.724;6.516;2023-09-07T11:29:57;101994.13;;;30.25;44.44
78671;BME280;68277;52.724;6.516;2023-09-07T11:32:23;101989.22;;;30.19;42.07
78671;BME280;68277;52.724;6.516;2023-09-07T11:34:53;101970.59;;;30.13;44.44
78671;BME280;68277;52.724;6.516;2023-09-07T11:37:23;101989.66;;;30.24;43.43
78671;BME280;68277;52.724;6.516;2023-09-07T11:39:49;101950.47;;;29.94;43.84
78671;BME280;68277;52.724;6.516;2023-09-07T11:42:14;101984.72;;;30.18;42.92
78671;BME280;68277;52.724;6.516;2023-09-07T11:44:40;101968.97;;;30.22;43.23
78671;BME280;68277;52.724;6.516;2023-09-07T11:47:05;101970.50;;;30.35;42.85
78671;BME280;68277;52.724;6.516;2023-09-07T11:49:32;101930.66;;;30.12;42.13
78671;BME280;68277;52.724;6.516;2023-09-07T11:51:58;101914.31;;;30.01;42.30
78671;BME280;68277;52.724;6.516;2023-09-07T11:54:27;101939.19;;;30.19;42.53
78671;BME280;68277;52.724;6.516;2023-09-07T11:56:53;101923.06;;;30.16;42.12
78671;BME280;68277;52.724;6.516;2023-09-07T11:59:18;101959.97;;;30.31;40.42
78671;BME280;68277;52.724;6.516;2023-09-07T12:01:44;101941.91;;;30.19;41.90
78671;BME280;68277;52.724;6.516;2023-09-07T12:04:10;101959.81;;;30.32;39.18
78671;BME280;68277;52.724;6.516;2023-09-07T12:06:36;101947.84;;;30.24;41.07
78671;BME280;68277;52.724;6.516;2023-09-07T12:09:03;101954.53;;;30.20;40.05
78671;BME280;68277;52.724;6.516;2023-09-07T12:11:29;101958.69;;;30.14;38.84
78671;BME280;68277;52.724;6.516;2023-09-07T12:13:56;101932.91;;;30.07;39.55
78671;BME280;68277;52.724;6.516;2023-09-07T12:16:21;101952.03;;;30.28;38.43
78671;BME280;68277;52.724;6.516;2023-09-07T12:18:47;101920.53;;;30.24;39.95
78671;BME280;68277;52.724;6.516;2023-09-07T12:21:12;101941.59;;;30.33;39.67
78671;BME280;68277;52.724;6.516;2023-09-07T12:23:38;101947.13;;;30.42;41.09
78671;BME280;68277;52.724;6.516;2023-09-07T12:26:03;101908.81;;;30.33;39.98
78671;BME280;68277;52.724;6.516;2023-09-07T12:28:29;101948.63;;;30.56;40.65
78671;BME280;68277;52.724;6.516;2023-09-07T12:30:56;101924.84;;;30.47;40.47
78671;BME280;68277;52.724;6.516;2023-09-07T12:33:21;101934.41;;;30.62;40.48
78671;BME280;68277;52.724;6.516;2023-09-07T12:35:46;101927.06;;;30.63;40.20
78671;BME280;68277;52.724;6.516;2023-09-07T12:38:12;101930.25;;;30.68;39.16
78671;BME280;68277;52.724;6.516;2023-09-07T12:40:42;101920.41;;;30.56;39.75
78671;BME280;68277;52.724;6.516;2023-09-07T12:43:09;101925.66;;;30.68;39.97
78671;BME280;68277;52.724;6.516;2023-09-07T12:45:34;101933.50;;;30.82;39.07
78671;BME280;68277;52.724;6.516;2023-09-07T12:48:00;101897.19;;;30.71;39.85
78671;BME280;68277;52.724;6.516;2023-09-07T12:50:27;101898.78;;;30.73;40.30